Time;durP1;ratioP1;P1;durP2;ratioP2;P2;SDS_P1;SDS_P2;PMS_P1;PMS_P2;Temp;Humidity;BMP_temperature;BMP_pressure;BME280_temperature;BME280_humidity;BME280_pressure;Samples;Min_cycle;Max_cycle;Signal;HPM_P1;HPM_P2
2021/05/02 00:00:09;;;;;;;38.53;26.65;;;;;;;7.99;96.44;100284.19;3583974;39;20081;-51
2021/05/02 00:02:36;;;;;;;43.22;28.58;;;;;;;7.90;97.25;100284.78;3583808;39;20056;-54
2021/05/02 00:05:05;;;;;;;41.33;27.08;;;;;;;7.96;96.81;100269.69;3583650;39;20044;-54
2021/05/02 00:07:31;;;;;;;42.90;28.30;;;;;;;7.94;96.87;100275.56;3583626;39;20073;-51
2021/05/02 00:09:59;;;;;;;42.75;28.33;;;;;;;8.03;96.67;100270.72;3583398;39;20081;-51
2021/05/02 00:12:26;;;;;;;42.92;27.98;;;;;;;8.13;95.78;100278.72;3583319;39;20060;-56
2021/05/02 00:14:54;;;;;;;43.40;28.15;;;;;;;8.00;96.57;100274.06;3583610;39;20056;-55
2021/05/02 00:17:22;;;;;;;43.92;29.77;;;;;;;7.93;96.64;100266.19;3584571;39;20056;-51
2021/05/02 00:19:49;;;;;;;43.38;28.50;;;;;;;8.09;96.13;100266.69;3588567;39;20060;-51
2021/05/02 00:22:20;;;;;;;45.20;29.75;;;;;;;7.99;96.78;100263.81;3585849;39;20040;-55
2021/05/02 00:24:50;;;;;;;47.17;29.55;;;;;;;8.12;96.10;100261.66;3584480;39;20410;-52
2021/05/02 00:27:17;;;;;;;51.28;31.75;;;;;;;7.95;96.55;100257.78;3581190;39;20107;-55
2021/05/02 00:29:45;;;;;;;45.22;29.15;;;;;;;8.26;95.45;100266.28;3583416;39;20049;-54
2021/05/02 00:32:12;;;;;;;43.75;28.90;;;;;;;8.21;95.53;100271.25;3583540;39;20298;-57
2021/05/02 00:34:40;;;;;;;48.67;30.13;;;;;;;8.12;95.65;100271.84;3583350;39;20161;-58
2021/05/02 00:37:06;;;;;;;45.20;28.55;;;;;;;8.06;96.13;100258.94;3582760;39;20052;-53
2021/05/02 00:39:37;;;;;;;46.83;30.92;;;;;;;8.06;96.18;100241.09;3583317;39;20410;-52
2021/05/02 00:42:07;;;;;;;49.42;31.65;;;;;;;8.16;95.86;100237.97;3583448;39;20059;-53
2021/05/02 00:44:45;;;;;;;50.03;31.42;;;;;;;8.25;95.20;100233.94;3583307;39;20158;-53
2021/05/02 00:47:17;;;;;;;47.65;30.63;;;;;;;8.19;95.19;100237.19;3583171;39;20045;-54
2021/05/02 00:49:54;;;;;;;48.40;31.05;;;;;;;8.52;94.61;100233.88;3583096;39;20437;-56
2021/05/02 00:52:33;;;;;;;48.10;30.70;;;;;;;8.09;96.20;100233.53;3580546;39;20139;-55
2021/05/02 00:55:42;;;;;;;48.15;32.15;;;;;;;8.28;95.49;100234.03;3582905;39;20072;-53
2021/05/02 00:58:16;;;;;;;44.85;29.42;;;;;;;8.53;94.48;100245.81;3582907;39;20041;-53
2021/05/02 01:00:52;;;;;;;50.88;30.48;;;;;;;8.26;94.66;100249.28;3582964;39;20085;-53
2021/05/02 01:03:23;;;;;;;52.33;31.10;;;;;;;8.16;95.82;100252.41;3580313;39;20080;-53
2021/05/02 01:05:53;;;;;;;50.45;29.58;;;;;;;7.86;96.94;100240.53;3582939;39;20095;-55
2021/05/02 01:08:21;;;;;;;48.70;30.45;;;;;;;8.03;97.24;100233.34;3582994;39;20056;-55
2021/05/02 01:10:47;;;;;;;48.75;30.67;;;;;;;8.18;95.37;100248.22;3583077;39;20347;-57
2021/05/02 01:13:17;;;;;;;47.10;29.38;;;;;;;8.33;95.06;100241.00;3583529;39;20354;-54
2021/05/02 01:15:49;;;;;;;46.92;29.42;;;;;;;8.12;96.12;100236.16;3582966;39;20100;-52
2021/05/02 01:18:20;;;;;;;49.85;31.17;;;;;;;8.19;95.68;100244.84;3580794;39;20082;-54
2021/05/02 01:20:46;;;;;;;47.97;30.70;;;;;;;7.99;95.86;100243.41;3583338;39;20085;-54
2021/05/02 01:23:27;;;;;;;44.67;29.25;;;;;;;8.18;95.37;100232.94;3583906;39;20040;-56
2021/05/02 01:25:56;;;;;;;45.28;29.38;;;;;;;8.04;96.32;100227.44;3583571;39;20085;-56
2021/05/02 01:28:23;;;;;;;50.88;31.05;;;;;;;7.77;97.10;100221.56;3583254;39;20103;-57
2021/05/02 01:30:50;;;;;;;48.80;30.50;;;;;;;8.13;96.36;100219.16;3582518;39;20101;-56
2021/05/02 01:33:17;;;;;;;49.55;31.75;;;;;;;7.73;97.79;100225.69;3582948;39;20036;-57
2021/05/02 01:35:45;;;;;;;52.63;33.05;;;;;;;7.85;96.83;100227.72;3582799;39;20048;-54
2021/05/02 01:38:14;;;;;;;49.67;30.95;;;;;;;7.76;98.06;100233.41;3582735;39;20056;-55
2021/05/02 01:40:41;;;;;;;49.55;32.05;;;;;;;7.79;97.73;100235.19;3583011;39;20056;-56
2021/05/02 01:43:08;;;;;;;56.22;32.95;;;;;;;7.69;98.37;100241.69;3583059;39;20425;-54
2021/05/02 01:45:34;;;;;;;54.33;32.97;;;;;;;7.68;98.66;100234.88;3582918;39;20060;-57
2021/05/02 01:48:05;;;;;;;56.83;32.90;;;;;;;7.60;99.01;100234.63;3582992;39;20115;-57
2021/05/02 01:50:51;;;;;;;53.70;33.35;;;;;;;7.48;99.56;100238.50;3583023;39;20361;-56
2021/05/02 01:53:18;;;;;;;;;;;;;;;7.80;98.45;100234.38;3580789;39;20053;-55
2021/05/02 01:55:47;;;;;;;50.47;30.30;;;;;;;7.67;98.73;100228.03;3582673;39;19941;-55
2021/05/02 01:58:15;;;;;;;48.58;30.35;;;;;;;7.78;98.46;100226.69;3582673;39;20097;-58
2021/05/02 02:00:54;;;;;;;52.17;31.30;;;;;;;7.76;98.91;100223.22;3582954;39;20088;-54
2021/05/02 02:03:21;;;;;;;50.40;31.05;;;;;;;7.65;99.24;100216.94;3581803;39;20111;-54
2021/05/02 02:05:49;;;;;;;51.78;32.50;;;;;;;7.78;98.68;100213.06;3584529;39;20056;-56
2021/05/02 02:08:17;;;;;;;49.05;31.08;;;;;;;7.83;98.62;100222.59;3581783;39;20051;-56
2021/05/02 02:10:47;;;;;;;54.58;32.83;;;;;;;7.63;99.96;100224.56;3584414;39;20063;-53
2021/05/02 02:13:16;;;;;;;51.45;32.50;;;;;;;7.62;99.96;100220.25;3584242;39;20123;-57
2021/05/02 02:15:44;;;;;;;52.00;31.85;;;;;;;7.93;99.60;100210.97;3584320;39;20053;-55
2021/05/02 02:18:12;;;;;;;48.88;31.38;;;;;;;8.19;97.06;100201.50;3584476;39;20124;-56
2021/05/02 02:20:43;;;;;;;53.70;33.08;;;;;;;7.95;97.89;100198.25;3584594;39;20079;-54
2021/05/02 02:23:17;;;;;;;55.33;33.38;;;;;;;7.79;98.65;100205.47;3584181;39;20080;-55
2021/05/02 02:25:46;;;;;;;53.03;32.55;;;;;;;7.81;99.39;100200.41;3584633;39;20072;-54
2021/05/02 02:28:20;;;;;;;57.95;33.15;;;;;;;8.02;97.56;100201.03;3584663;39;20052;-52
2021/05/02 02:30:58;;;;;;;57.88;34.55;;;;;;;7.98;97.16;100204.31;3584273;39;20059;-56
2021/05/02 02:33:29;;;;;;;53.50;33.03;;;;;;;7.72;99.07;100206.13;3582565;39;20148;-56
2021/05/02 02:35:56;;;;;;;56.38;34.28;;;;;;;7.83;98.18;100196.22;3584664;39;20060;-58
2021/05/02 02:38:26;;;;;;;58.20;33.45;;;;;;;7.68;99.13;100200.91;3584626;39;20697;-55
2021/05/02 02:40:55;;;;;;;54.53;32.70;;;;;;;7.82;99.64;100192.81;3584441;39;20084;-55
2021/05/02 02:43:32;;;;;;;56.33;33.92;;;;;;;8.02;98.42;100200.16;3584229;39;20096;-53
2021/05/02 02:46:03;;;;;;;60.42;35.97;;;;;;;7.87;98.12;100195.50;3583947;39;20063;-55
2021/05/02 02:48:32;;;;;;;59.78;35.97;;;;;;;7.55;100.00;100194.56;3584493;39;20064;-56
2021/05/02 02:51:01;;;;;;;59.67;35.97;;;;;;;7.79;98.92;100192.72;3583753;39;20521;-55
2021/05/02 02:53:31;;;;;;;60.90;35.08;;;;;;;7.76;99.78;100200.28;3584538;39;20056;-54
2021/05/02 02:56:06;;;;;;;57.50;36.28;;;;;;;7.83;99.44;100197.09;3583455;39;20541;-59
2021/05/02 02:58:36;;;;;;;61.30;36.13;;;;;;;7.62;100.00;100199.00;3584233;39;20093;-57
2021/05/02 03:01:05;;;;;;;60.38;34.25;;;;;;;8.10;97.84;100203.78;3584250;39;20040;-55
2021/05/02 03:03:33;;;;;;;60.47;35.65;;;;;;;7.92;99.80;100191.41;3584407;39;20336;-55
2021/05/02 03:06:02;;;;;;;59.60;34.50;;;;;;;8.14;98.48;100200.50;3583941;39;20119;-57
2021/05/02 03:08:35;;;;;;;61.50;35.08;;;;;;;8.14;97.83;100198.81;3584162;39;20044;-57
2021/05/02 03:11:02;;;;;;;59.17;36.50;;;;;;;7.73;99.04;100204.44;3583956;39;20089;-56
2021/05/02 03:13:29;;;;;;;62.33;37.05;;;;;;;7.62;100.00;100204.97;3584169;39;20060;-56
2021/05/02 03:15:57;;;;;;;60.97;35.78;;;;;;;8.04;99.31;100204.50;3584064;39;20045;-55
2021/05/02 03:18:41;;;;;;;60.90;34.80;;;;;;;7.94;98.30;100210.13;3584070;39;20143;-53
2021/05/02 03:21:12;;;;;;;63.80;35.53;;;;;;;7.77;98.41;100209.66;3583480;39;20056;-57
2021/05/02 03:23:42;;;;;;;60.92;35.60;;;;;;;7.82;98.67;100207.25;3583695;39;20080;-55
2021/05/02 03:26:11;;;;;;;59.08;35.08;;;;;;;7.74;99.02;100208.72;3583586;39;20036;-57
2021/05/02 03:29:00;;;;;;;60.67;36.20;;;;;;;7.92;98.41;100199.03;3583857;39;20084;-57
2021/05/02 03:31:33;;;;;;;61.92;35.97;;;;;;;7.68;100.00;100206.00;3581585;39;20176;-57
2021/05/02 03:34:03;;;;;;;65.68;36.00;;;;;;;8.25;97.27;100204.22;3583677;39;20106;-54
2021/05/02 03:36:46;;;;;;;63.38;36.35;;;;;;;7.81;97.97;100203.84;3584088;39;20315;-53
2021/05/02 03:39:13;;;;;;;62.90;36.35;;;;;;;7.52;100.00;100202.09;3583852;39;20056;-57
2021/05/02 03:41:39;;;;;;;64.88;37.22;;;;;;;7.49;100.00;100196.91;3583896;39;20066;-55
2021/05/02 03:44:06;;;;;;;66.53;37.05;;;;;;;7.37;100.00;100198.28;3583533;39;20107;-55
2021/05/02 03:46:33;;;;;;;69.38;37.75;;;;;;;7.53;100.00;100198.72;3583939;39;20044;-55
2021/05/02 03:49:05;;;;;;;68.47;38.45;;;;;;;7.66;100.00;100206.78;3584125;39;20084;-56
2021/05/02 03:51:33;;;;;;;66.40;36.72;;;;;;;7.69;99.97;100198.38;3583773;39;20060;-54
2021/05/02 03:54:01;;;;;;;67.03;38.65;;;;;;;7.40;100.00;100192.44;3583519;39;20096;-55
2021/05/02 03:56:38;;;;;;;67.88;37.97;;;;;;;7.40;100.00;100194.97;3583996;39;20052;-55
2021/05/02 03:59:14;;;;;;;67.13;37.90;;;;;;;7.28;100.00;100198.00;3583512;39;20056;-53
2021/05/02 04:01:56;;;;;;;64.05;36.95;;;;;;;7.72;100.00;100207.78;3583541;39;20456;-55
2021/05/02 04:04:34;;;;;;;67.63;38.03;;;;;;;7.45;100.00;100198.53;3581370;39;20157;-51
2021/05/02 04:07:06;;;;;;;66.35;37.90;;;;;;;7.34;100.00;100199.84;3583294;39;20072;-57
2021/05/02 04:09:34;;;;;;;71.15;38.55;;;;;;;7.43;100.00;100201.81;3583275;39;20054;-56
2021/05/02 04:12:03;;;;;;;62.95;38.15;;;;;;;7.36;100.00;100199.09;3584014;39;20056;-55
2021/05/02 04:14:30;;;;;;;63.00;37.53;;;;;;;7.31;100.00;100204.88;3583861;39;20476;-57
2021/05/02 04:17:04;;;;;;;63.35;36.38;;;;;;;7.51;100.00;100200.38;3583548;39;20419;-56
2021/05/02 04:19:33;;;;;;;67.53;39.00;;;;;;;7.19;100.00;100207.91;3583633;39;20061;-53
2021/05/02 04:22:01;;;;;;;65.82;36.05;;;;;;;7.34;100.00;100200.72;3583105;39;20103;-55
2021/05/02 04:24:28;;;;;;;64.85;36.97;;;;;;;7.26;100.00;100207.28;3583219;39;20048;-53
2021/05/02 04:26:56;;;;;;;63.60;35.45;;;;;;;7.21;100.00;100201.19;3583229;39;20048;-56
2021/05/02 04:29:24;;;;;;;64.25;37.97;;;;;;;7.28;100.00;100205.63;3583428;39;20060;-55
2021/05/02 04:31:51;;;;;;;67.25;38.47;;;;;;;7.20;100.00;100211.31;3583634;39;20400;-56
2021/05/02 04:34:19;;;;;;;66.68;36.63;;;;;;;7.08;100.00;100197.38;3583440;39;20056;-59
2021/05/02 04:36:50;;;;;;;62.42;36.63;;;;;;;7.20;100.00;100207.06;3585244;39;20342;-54
2021/05/02 04:39:18;;;;;;;62.38;35.13;;;;;;;7.55;100.00;100203.06;3584970;39;20112;-54
2021/05/02 04:41:45;;;;;;;62.67;36.92;;;;;;;7.58;100.00;100199.72;3587046;39;20060;-56
2021/05/02 04:44:12;;;;;;;66.28;37.33;;;;;;;7.43;100.00;100199.28;3584459;39;20051;-56
2021/05/02 04:46:39;;;;;;;60.05;36.13;;;;;;;7.42;100.00;100206.06;3583909;39;20072;-54
2021/05/02 04:49:07;;;;;;;66.20;36.58;;;;;;;7.78;100.00;100205.44;3582981;39;20054;-58
2021/05/02 04:51:35;;;;;;;56.80;33.92;;;;;;;7.48;100.00;100203.69;3583802;39;20406;-54
2021/05/02 04:54:02;;;;;;;60.40;36.72;;;;;;;7.36;100.00;100203.34;3583936;39;20060;-56
2021/05/02 04:56:29;;;;;;;56.95;34.83;;;;;;;7.90;100.00;100199.00;3583797;39;20067;-57
2021/05/02 04:58:55;;;;;;;60.83;35.70;;;;;;;8.05;96.26;100193.47;3583436;39;20084;-57
2021/05/02 05:01:22;;;;;;;60.70;34.20;;;;;;;7.67;98.45;100200.00;3583278;39;20044;-55
2021/05/02 05:03:49;;;;;;;59.78;36.25;;;;;;;7.47;100.00;100193.47;3583570;39;20137;-54
2021/05/02 05:06:16;;;;;;;62.53;37.08;;;;;;;7.33;100.00;100193.91;3581170;39;20060;-56
2021/05/02 05:08:42;;;;;;;61.90;34.42;;;;;;;7.47;100.00;100190.91;3584101;39;20067;-56
2021/05/02 05:11:09;;;;;;;61.00;35.88;;;;;;;7.78;99.12;100188.44;3583755;39;20088;-54
2021/05/02 05:13:35;;;;;;;60.80;35.55;;;;;;;7.69;98.12;100197.53;3583615;39;20085;-53
2021/05/02 05:16:02;;;;;;;59.97;34.95;;;;;;;7.93;97.84;100188.00;3583385;39;20068;-57
2021/05/02 05:18:28;;;;;;;57.97;33.25;;;;;;;7.87;98.25;100193.81;3583564;39;20076;-52
2021/05/02 05:20:56;;;;;;;58.50;33.17;;;;;;;7.95;97.06;100194.03;3583284;39;20049;-56
2021/05/02 05:23:23;;;;;;;56.45;33.45;;;;;;;8.04;96.68;100195.94;3583225;39;20107;-56
2021/05/02 05:25:50;;;;;;;51.55;33.53;;;;;;;7.86;97.13;100193.78;3583016;39;20095;-53
2021/05/02 05:28:16;;;;;;;53.33;32.10;;;;;;;7.97;97.28;100191.53;3580196;39;20068;-55
2021/05/02 05:30:43;;;;;;;56.33;32.38;;;;;;;7.92;97.28;100191.41;3583236;39;20052;-56
2021/05/02 05:33:10;;;;;;;58.42;33.45;;;;;;;7.96;97.18;100193.22;3583313;39;20065;-52
2021/05/02 05:35:38;;;;;;;49.90;32.70;;;;;;;8.04;95.42;100198.50;3583860;39;20101;-54
2021/05/02 05:38:06;;;;;;;49.17;31.48;;;;;;;8.01;97.54;100189.09;3584354;39;20052;-52
2021/05/02 05:40:32;;;;;;;54.53;31.95;;;;;;;8.03;97.48;100190.00;3584530;39;20092;-55
2021/05/02 05:43:03;;;;;;;46.35;31.35;;;;;;;7.87;97.37;100186.16;3584040;39;20052;-52
2021/05/02 05:45:31;;;;;;;53.05;33.03;;;;;;;7.71;97.51;100195.88;3584582;39;20089;-56
2021/05/02 05:47:58;;;;;;;49.55;31.95;;;;;;;7.95;96.29;100194.03;3583884;39;20402;-55
2021/05/02 05:50:26;;;;;;;49.20;30.40;;;;;;;8.36;95.16;100204.47;3584386;39;20088;-55
2021/05/02 05:52:53;;;;;;;49.38;30.25;;;;;;;8.44;94.62;100209.84;3584257;39;20092;-55
2021/05/02 05:55:20;;;;;;;46.63;30.00;;;;;;;8.24;94.89;100215.25;3584360;39;20064;-54
2021/05/02 05:57:49;;;;;;;46.75;30.33;;;;;;;8.18;94.51;100212.53;3584154;39;20040;-55
2021/05/02 06:00:18;;;;;;;48.47;29.08;;;;;;;8.29;94.66;100216.22;3581739;39;20072;-55
2021/05/02 06:02:44;;;;;;;47.28;29.95;;;;;;;8.25;95.15;100218.66;3582452;39;20049;-53
2021/05/02 06:05:12;;;;;;;46.63;28.92;;;;;;;8.67;93.78;100218.94;3583549;39;20165;-52
2021/05/02 06:07:39;;;;;;;47.25;28.75;;;;;;;8.46;93.38;100223.47;3584273;39;20052;-52
2021/05/02 06:10:07;;;;;;;44.75;27.83;;;;;;;8.34;93.51;100226.56;3583474;39;20092;-54
2021/05/02 06:12:34;;;;;;;49.40;30.58;;;;;;;8.27;94.07;100235.69;3584253;39;20138;-55
2021/05/02 06:15:01;;;;;;;47.42;28.95;;;;;;;8.44;93.43;100236.22;3583885;39;20050;-54
2021/05/02 06:17:29;;;;;;;42.58;27.02;;;;;;;8.29;93.88;100235.78;3583916;39;20512;-54
2021/05/02 06:19:56;;;;;;;43.00;27.92;;;;;;;8.32;94.76;100238.38;3584216;39;20092;-54
2021/05/02 06:22:22;;;;;;;46.10;28.17;;;;;;;8.44;93.08;100238.75;3584281;39;20116;-54
2021/05/02 06:24:48;;;;;;;47.38;29.45;;;;;;;8.24;93.86;100240.75;3582795;39;20065;-55
2021/05/02 06:27:15;;;;;;;41.28;26.65;;;;;;;8.98;91.96;100250.38;3584283;39;20673;-51
2021/05/02 06:29:42;;;;;;;40.40;25.85;;;;;;;8.66;91.94;100243.63;3584207;39;20052;-56
2021/05/02 06:32:08;;;;;;;43.22;27.30;;;;;;;8.55;92.58;100255.25;3584203;39;20611;-56
2021/05/02 06:34:35;;;;;;;41.20;27.15;;;;;;;8.52;92.56;100257.69;3584031;39;20582;-56
2021/05/02 06:37:02;;;;;;;43.72;26.98;;;;;;;8.37;93.75;100253.06;3583904;39;20382;-55
2021/05/02 06:39:29;;;;;;;43.03;27.80;;;;;;;8.52;93.38;100260.25;3584036;39;20335;-52
2021/05/02 06:41:57;;;;;;;41.35;25.60;;;;;;;8.97;91.75;100261.38;3580313;39;20041;-54
2021/05/02 06:44:24;;;;;;;40.10;27.52;;;;;;;8.75;92.35;100265.97;3579988;40;20056;-53
2021/05/02 06:46:53;;;;;;;42.17;26.88;;;;;;;8.98;91.71;100265.69;3577938;39;20766;-54
2021/05/02 06:49:20;;;;;;;42.13;27.27;;;;;;;8.72;93.77;100260.78;3578682;39;20362;-57
2021/05/02 06:51:47;;;;;;;44.40;26.90;;;;;;;9.00;91.51;100264.88;3578234;39;20081;-57
2021/05/02 06:54:15;;;;;;;37.75;24.45;;;;;;;9.12;91.23;100259.22;3579459;39;20423;-53
2021/05/02 06:56:42;;;;;;;36.17;25.00;;;;;;;9.49;88.65;100268.63;3578416;39;20033;-58
2021/05/02 06:59:09;;;;;;;43.22;26.70;;;;;;;8.74;93.01;100271.91;3579103;39;20088;-53
2021/05/02 07:01:38;;;;;;;42.78;26.52;;;;;;;8.65;93.96;100267.41;3578671;39;20063;-52
2021/05/02 07:04:06;;;;;;;41.65;26.10;;;;;;;8.67;93.68;100275.09;3584768;39;20573;-50
2021/05/02 07:06:34;;;;;;;40.03;25.75;;;;;;;9.17;91.60;100278.94;3581753;39;20048;-55
2021/05/02 07:09:02;;;;;;;45.30;27.05;;;;;;;8.98;93.46;100270.81;3578897;39;20433;-54
2021/05/02 07:11:28;;;;;;;38.38;25.45;;;;;;;9.13;92.00;100268.63;3579614;39;20058;-53
2021/05/02 07:13:55;;;;;;;42.65;28.35;;;;;;;9.04;93.15;100281.16;3579846;39;20049;-55
2021/05/02 07:16:22;;;;;;;45.05;27.25;;;;;;;8.95;93.10;100280.94;3580529;39;20072;-52
2021/05/02 07:18:50;;;;;;;44.50;27.45;;;;;;;8.88;93.26;100277.38;3579399;39;20045;-54
2021/05/02 07:21:19;;;;;;;41.40;26.50;;;;;;;8.78;94.17;100283.03;3579805;39;20155;-52
2021/05/02 07:23:50;;;;;;;41.95;26.85;;;;;;;8.75;95.25;100283.84;3580128;39;20113;-52
2021/05/02 07:26:19;;;;;;;39.78;27.02;;;;;;;9.05;93.77;100286.28;3579954;39;20067;-54
2021/05/02 07:28:46;;;;;;;40.10;26.88;;;;;;;9.30;90.32;100279.25;3582825;39;20079;-53
2021/05/02 07:31:13;;;;;;;40.78;25.77;;;;;;;9.50;91.05;100284.84;3583543;39;20089;-54
2021/05/02 07:33:40;;;;;;;42.72;27.00;;;;;;;8.97;93.84;100286.91;3583606;39;20084;-54
2021/05/02 07:36:07;;;;;;;40.45;25.48;;;;;;;9.44;91.30;100293.22;3583128;39;20096;-55
2021/05/02 07:38:35;;;;;;;37.92;25.88;;;;;;;9.37;92.18;100287.09;3584004;39;21075;-51
2021/05/02 07:41:03;;;;;;;35.88;25.27;;;;;;;9.48;92.99;100287.38;3583684;39;20326;-55
2021/05/02 07:43:32;;;;;;;40.35;26.08;;;;;;;9.23;92.21;100290.13;3582407;39;20052;-52
2021/05/02 07:46:01;;;;;;;35.03;24.45;;;;;;;9.51;91.63;100294.22;3582614;39;20417;-54
2021/05/02 07:48:28;;;;;;;40.67;26.77;;;;;;;9.54;91.96;100286.63;3583471;39;20044;-55
2021/05/02 07:50:56;;;;;;;38.08;25.38;;;;;;;9.04;94.15;100292.25;3581117;39;20300;-52
2021/05/02 07:53:23;;;;;;;38.13;27.20;;;;;;;9.39;94.14;100284.59;3579780;39;20048;-52
2021/05/02 07:55:50;;;;;;;35.42;26.15;;;;;;;9.88;92.07;100295.91;3577022;40;20798;-57
2021/05/02 07:58:17;;;;;;;39.92;26.50;;;;;;;9.81;91.66;100291.50;3579423;39;20054;-58
2021/05/02 08:00:44;;;;;;;37.70;26.83;;;;;;;9.74;91.81;100292.19;3579323;39;20049;-56
2021/05/02 08:03:13;;;;;;;34.72;24.88;;;;;;;9.89;91.47;100292.53;3579897;39;20064;-54
2021/05/02 08:05:40;;;;;;;39.05;26.52;;;;;;;9.21;94.14;100294.38;3579416;39;20405;-54
2021/05/02 08:08:07;;;;;;;35.90;25.80;;;;;;;9.47;92.85;100292.41;3579389;39;20418;-54
2021/05/02 08:10:33;;;;;;;40.15;26.77;;;;;;;9.55;92.98;100296.88;3579370;39;22405;-52
2021/05/02 08:13:00;;;;;;;42.53;29.02;;;;;;;9.16;95.50;100294.25;3579597;39;20056;-55
2021/05/02 08:15:28;;;;;;;39.38;27.35;;;;;;;8.90;96.53;100297.00;3578736;39;20059;-53
2021/05/02 08:17:59;;;;;;;44.35;29.60;;;;;;;8.97;97.13;100298.03;3579350;39;20048;-53
2021/05/02 08:20:27;;;;;;;42.13;27.27;;;;;;;9.15;97.74;100298.50;3602197;23;20063;-54
2021/05/02 08:22:54;;;;;;;42.13;28.20;;;;;;;9.00;98.09;100303.19;3582716;39;20187;-59
2021/05/02 08:25:20;;;;;;;41.35;27.05;;;;;;;9.66;94.21;100304.81;3581908;39;20063;-57
2021/05/02 08:27:49;;;;;;;41.22;28.90;;;;;;;9.06;97.93;100305.03;3582471;39;20058;-49
2021/05/02 08:30:16;;;;;;;43.15;28.05;;;;;;;8.91;98.58;100308.06;3582808;39;20052;-52
2021/05/02 08:32:43;;;;;;;44.25;30.02;;;;;;;8.99;99.99;100298.06;3567809;39;20053;-49
2021/05/02 08:35:10;;;;;;;43.80;30.38;;;;;;;9.34;99.49;100304.06;3572590;39;20059;-48
2021/05/02 08:37:37;;;;;;;40.83;28.92;;;;;;;9.33;98.71;100303.16;3573461;39;20073;-51
2021/05/02 08:40:06;;;;;;;43.42;29.13;;;;;;;9.20;98.37;100306.28;3577057;39;20168;-58
2021/05/02 08:42:33;;;;;;;44.55;30.20;;;;;;;8.93;100.00;100309.84;3576151;39;20040;-58
2021/05/02 08:45:01;;;;;;;44.75;30.30;;;;;;;8.82;100.00;100306.13;3569765;39;20049;-56
2021/05/02 08:47:34;;;;;;;47.63;30.27;;;;;;;9.35;100.00;100304.09;3571952;39;20056;-58
2021/05/02 08:50:10;;;;;;;42.67;29.85;;;;;;;9.48;99.87;100302.69;3569574;39;20079;-55
2021/05/02 08:52:38;;;;;;;45.27;30.87;;;;;;;9.70;97.74;100310.00;3566939;39;20050;-59
2021/05/02 08:55:07;;;;;;;48.25;32.28;;;;;;;9.25;100.00;100307.25;3565384;39;20617;-63
2021/05/02 08:57:35;;;;;;;48.58;32.22;;;;;;;9.06;100.00;100305.94;3565825;39;20049;-62
2021/05/02 09:00:04;;;;;;;48.00;30.98;;;;;;;9.51;100.00;100305.31;3569307;39;20079;-56
2021/05/02 09:02:31;;;;;;;49.15;32.53;;;;;;;9.53;99.27;100306.22;3565616;39;20109;-60
2021/05/02 09:05:01;;;;;;;46.95;32.85;;;;;;;9.40;99.44;100296.53;3566608;39;20051;-59
2021/05/02 09:07:27;;;;;;;47.30;33.03;;;;;;;9.32;100.00;100301.44;3566997;39;20069;-60
2021/05/02 09:09:55;;;;;;;48.70;34.70;;;;;;;9.29;100.00;100303.06;3569070;39;20077;-57
2021/05/02 09:12:25;;;;;;;47.58;32.72;;;;;;;9.22;100.00;100308.84;3573173;39;20049;-57
2021/05/02 09:14:52;;;;;;;45.55;32.47;;;;;;;9.06;100.00;100305.94;3569670;39;20410;-55
2021/05/02 09:19:52;;;;;;;48.72;34.97;;;;;;;9.31;100.00;100303.97;3571668;39;20341;-55
2021/05/02 09:22:20;;;;;;;51.15;34.67;;;;;;;9.62;100.00;100303.88;3572018;39;20052;-52
2021/05/02 09:25:11;;;;;;;44.47;32.38;;;;;;;9.99;96.93;100298.72;3572291;39;20418;-50
2021/05/02 09:27:48;;;;;;;45.97;31.55;;;;;;;9.94;98.71;100302.06;3570648;39;20064;-59
2021/05/02 09:30:17;;;;;;;43.65;31.60;;;;;;;10.40;96.49;100303.06;3571557;39;20344;-54
2021/05/02 09:32:45;;;;;;;46.42;31.13;;;;;;;10.05;97.12;100307.38;3566663;39;20486;-58
2021/05/02 09:35:26;;;;;;;43.58;30.23;;;;;;;10.19;96.67;100305.97;3566195;39;20065;-49
2021/05/02 09:38:14;;;;;;;39.28;27.10;;;;;;;10.79;93.97;100307.19;3568783;39;20348;-55
2021/05/02 09:40:52;;;;;;;35.35;25.98;;;;;;;10.43;94.70;100305.66;3567932;39;20411;-52
2021/05/02 09:43:32;;;;;;;37.30;27.73;;;;;;;10.54;94.93;100302.44;3564972;39;20050;-56
2021/05/02 09:48:57;;;;;;;39.15;27.02;;;;;;;10.66;95.87;100313.78;3565676;39;20420;-48
2021/05/02 09:51:28;;;;;;;34.60;26.80;;;;;;;10.92;92.29;100324.53;3569817;39;20396;-55
2021/05/02 09:54:10;;;;;;;37.15;26.80;;;;;;;10.64;94.79;100320.59;3570469;39;20049;-51
2021/05/02 09:57:02;;;;;;;32.17;24.23;;;;;;;10.86;94.17;100318.41;3570125;39;20592;-54
2021/05/02 09:59:31;;;;;;;33.40;24.90;;;;;;;11.47;92.95;100334.88;3561193;39;20108;-54
2021/05/02 10:02:10;;;;;;;33.20;25.88;;;;;;;11.52;91.41;100329.81;3570416;39;20080;-53
2021/05/02 10:04:50;;;;;;;33.03;24.75;;;;;;;11.48;92.44;100328.91;3565101;39;20073;-52
2021/05/02 10:07:30;;;;;;;29.58;22.98;;;;;;;11.23;92.16;100327.59;3569228;39;20049;-51
2021/05/02 10:09:58;;;;;;;27.92;22.17;;;;;;;11.54;88.88;100330.69;3559369;39;20047;-53
2021/05/02 10:12:25;;;;;;;29.67;23.08;;;;;;;11.45;90.29;100331.41;3571143;39;20096;-56
2021/05/02 10:14:52;;;;;;;28.25;22.75;;;;;;;11.53;90.37;100334.97;3571792;39;20172;-54
2021/05/02 10:17:19;;;;;;;29.83;22.40;;;;;;;12.01;89.25;100328.00;3569742;39;20426;-51
2021/05/02 10:19:48;;;;;;;28.95;22.85;;;;;;;12.04;89.79;100330.63;3570218;39;20045;-55
2021/05/02 10:22:18;;;;;;;26.75;21.17;;;;;;;12.30;86.29;100333.53;3571456;39;20069;-55
2021/05/02 10:24:46;;;;;;;26.83;21.08;;;;;;;11.90;86.21;100335.56;3572252;39;20073;-54
2021/05/02 10:27:13;;;;;;;25.80;21.17;;;;;;;11.93;89.03;100326.19;3573420;39;20762;-56
2021/05/02 10:29:41;;;;;;;26.30;20.75;;;;;;;11.69;88.00;100334.38;3573057;39;20088;-56
2021/05/02 10:32:13;;;;;;;26.10;19.85;;;;;;;11.47;87.69;100335.72;3572644;39;20124;-56
2021/05/02 10:34:43;;;;;;;26.83;21.40;;;;;;;11.59;88.54;100335.03;3568506;39;20108;-55
2021/05/02 10:37:26;;;;;;;27.13;21.65;;;;;;;10.98;91.09;100335.72;3569682;39;20049;-58
2021/05/02 10:40:03;;;;;;;30.33;22.63;;;;;;;11.07;90.98;100336.75;3567706;39;20076;-58
2021/05/02 10:42:54;;;;;;;29.17;22.50;;;;;;;10.94;90.77;100334.78;3571774;39;20061;-57
2021/05/02 10:45:30;;;;;;;27.52;20.88;;;;;;;11.32;88.60;100344.84;3566400;39;20045;-55
2021/05/02 10:47:58;;;;;;;27.00;20.45;;;;;;;11.62;86.82;100347.06;3573036;39;20045;-55
2021/05/02 10:50:33;;;;;;;28.77;22.73;;;;;;;11.51;85.71;100341.78;3573790;39;20635;-54
2021/05/02 10:53:01;;;;;;;26.98;20.98;;;;;;;11.82;86.12;100347.38;3572917;39;20327;-55
2021/05/02 10:55:52;;;;;;;25.83;20.92;;;;;;;11.96;84.44;100345.91;3574057;39;20149;-58
2021/05/02 10:58:28;;;;;;;27.85;21.25;;;;;;;12.00;86.27;100354.50;3572616;39;20051;-47
2021/05/02 11:01:08;;;;;;;26.67;20.80;;;;;;;12.05;84.71;100352.88;3573551;39;20049;-48
2021/05/02 11:03:35;;;;;;;27.55;21.10;;;;;;;12.21;84.32;100357.38;3572289;39;20080;-54
2021/05/02 11:06:09;;;;;;;27.83;21.45;;;;;;;12.48;84.00;100357.75;3573291;39;20052;-52
2021/05/02 11:08:48;;;;;;;24.75;20.45;;;;;;;12.65;82.55;100359.63;3573785;39;20057;-54
2021/05/02 11:11:30;;;;;;;29.35;22.13;;;;;;;12.46;83.60;100358.56;3573075;39;20477;-54
2021/05/02 11:14:09;;;;;;;24.73;20.20;;;;;;;12.17;82.17;100355.63;3563271;39;20426;-54
2021/05/02 11:16:39;;;;;;;27.20;20.98;;;;;;;11.91;85.13;100361.22;3565737;39;20045;-55
2021/05/02 11:19:09;;;;;;;21.60;17.73;;;;;;;11.95;79.59;100362.13;3567212;39;20134;-53
2021/05/02 11:21:48;;;;;;;21.98;18.42;;;;;;;11.65;80.83;100355.69;3569064;39;20449;-54
2021/05/02 11:24:22;;;;;;;18.90;16.88;;;;;;;12.05;79.44;100361.44;3569273;39;20085;-53
2021/05/02 11:29:46;;;;;;;21.48;17.58;;;;;;;12.34;80.38;100363.53;3566119;39;20132;-55
2021/05/02 11:32:33;;;;;;;25.23;19.10;;;;;;;11.81;81.29;100363.59;3569517;39;20132;-58
2021/05/02 11:35:01;;;;;;;21.25;17.13;;;;;;;12.05;81.27;100365.69;3566931;39;20048;-57